Time;durP1;ratioP1;P1;durP2;ratioP2;P2;SDS_P1;SDS_P2;PMS_P1;PMS_P2;Temp;Humidity;BMP_temperature;BMP_pressure;BME280_temperature;BME280_humidity;BME280_pressure;Samples;Min_cycle;Max_cycle;Signal;HPM_P1;HPM_P2
2023/11/28 00:00:09;;;;;;;8.80;4.20;;;;;;;3.30;48.86;99621.07;106389;1254;66475;-82
2023/11/28 00:02:40;;;;;;;8.60;4.70;;;;;;;3.40;48.76;99622.64;106307;1254;72747;-79
2023/11/28 00:05:08;;;;;;;10.70;4.40;;;;;;;3.34;48.68;99622.09;106344;1252;60440;-80
2023/11/28 00:07:36;;;;;;;8.60;4.30;;;;;;;3.25;48.87;99622.95;106429;1253;60412;-82
2023/11/28 00:10:04;;;;;;;8.70;4.90;;;;;;;3.18;49.06;99628.86;106140;1259;73815;-80
2023/11/28 00:12:32;;;;;;;9.00;4.70;;;;;;;3.15;49.44;99638.21;106228;1254;67205;-82
2023/11/28 00:15:00;;;;;;;9.10;5.10;;;;;;;3.29;49.61;99645.84;106215;1256;71512;-83
2023/11/28 00:17:27;;;;;;;9.60;4.30;;;;;;;3.36;49.85;99645.34;106237;1256;60388;-82
2023/11/28 00:19:55;;;;;;;9.90;5.30;;;;;;;3.52;49.83;99642.27;106275;1254;60489;-79
2023/11/28 00:22:23;;;;;;;9.20;4.80;;;;;;;3.65;49.66;99643.73;106347;1254;72580;-82
2023/11/28 00:24:51;;;;;;;8.30;5.00;;;;;;;3.70;49.68;99650.10;106244;1253;66620;-79
2023/11/28 00:27:19;;;;;;;9.10;4.90;;;;;;;3.66;49.67;99647.69;106276;1256;72702;-83
2023/11/28 00:29:47;;;;;;;9.90;5.00;;;;;;;3.89;49.58;99647.33;106227;1256;60379;-82
2023/11/28 00:32:14;;;;;;;11.50;5.10;;;;;;;4.11;49.10;99646.31;106121;1253;60351;-82
2023/11/28 00:34:42;;;;;;;10.00;5.10;;;;;;;3.96;49.28;99645.45;106335;1256;73925;-84
2023/11/28 00:37:10;;;;;;;10.40;5.30;;;;;;;3.83;49.76;99647.13;106451;1254;67363;-80
2023/11/28 00:39:39;;;;;;;13.60;5.20;;;;;;;3.98;49.50;99651.10;106420;1254;71494;-83
2023/11/28 00:42:07;;;;;;;11.20;5.20;;;;;;;3.93;49.88;99655.27;106390;1252;61227;-84
2023/11/28 00:44:35;;;;;;;9.50;4.50;;;;;;;3.95;49.88;99654.54;106570;1253;60561;-80
2023/11/28 00:47:04;;;;;;;12.90;5.80;;;;;;;3.92;50.22;99650.28;106326;1254;73830;-82
2023/11/28 00:49:32;;;;;;;11.80;5.20;;;;;;;3.95;50.36;99652.80;106340;1253;68690;-80
2023/11/28 00:52:00;;;;;;;11.70;5.40;;;;;;;4.06;50.34;99651.78;106404;1254;70369;-80
2023/11/28 00:54:27;;;;;;;14.00;5.10;;;;;;;4.12;50.19;99652.87;106153;1254;60450;-82
2023/11/28 00:56:55;;;;;;;9.70;4.70;;;;;;;4.19;50.04;99654.98;106391;1256;60435;-80
2023/11/28 00:59:23;;;;;;;9.70;4.80;;;;;;;4.10;50.38;99655.43;106457;1256;72862;-80
2023/11/28 01:01:52;;;;;;;10.70;4.50;;;;;;;4.05;50.28;99659.66;106473;1256;68336;-83
2023/11/28 01:04:20;;;;;;;9.50;4.70;;;;;;;4.03;50.37;99660.34;106405;1254;72768;-83
2023/11/28 01:06:48;;;;;;;9.40;4.90;;;;;;;4.10;50.44;99660.26;106469;1254;60865;-80
2023/11/28 01:09:16;;;;;;;10.60;4.80;;;;;;;4.15;50.38;99660.02;106361;1257;60373;-80
2023/11/28 01:11:44;;;;;;;11.00;4.80;;;;;;;3.96;50.88;99661.78;106363;1254;73854;-82
2023/11/28 01:14:11;;;;;;;8.00;4.50;;;;;;;4.01;50.58;99663.94;106367;1256;68698;-81
2023/11/28 01:16:39;;;;;;;8.00;4.70;;;;;;;4.05;50.83;99659.81;106341;1253;72969;-81
2023/11/28 01:19:07;;;;;;;11.60;5.70;;;;;;;4.13;50.42;99656.17;106193;1256;60504;-82
2023/11/28 01:21:35;;;;;;;12.60;5.10;;;;;;;4.15;50.39;99658.34;106403;1256;60460;-82
2023/11/28 01:24:03;;;;;;;10.20;5.20;;;;;;;4.19;50.69;99661.30;106413;1254;73850;-82
2023/11/28 01:26:30;;;;;;;11.60;5.40;;;;;;;4.17;50.61;99663.13;106388;1256;67119;-82
2023/11/28 01:28:58;;;;;;;8.60;4.90;;;;;;;4.27;50.35;99662.41;106191;1254;72274;-79
2023/11/28 01:31:28;;;;;;;10.50;4.50;;;;;;;4.32;50.40;99664.39;106208;1256;61660;-78
2023/11/28 01:33:56;;;;;;;12.90;6.00;;;;;;;4.43;50.25;99662.31;106321;1254;60582;-79
2023/11/28 01:36:24;;;;;;;11.10;5.20;;;;;;;4.45;50.20;99663.95;106495;1256;74288;-79
2023/11/28 01:38:51;;;;;;;11.10;4.80;;;;;;;4.27;50.55;99661.81;106332;1253;67099;-82
2023/11/28 01:41:19;;;;;;;9.20;4.30;;;;;;;4.11;51.19;99670.03;106363;1253;71390;-82
2023/11/28 01:43:47;;;;;;;11.40;5.00;;;;;;;4.11;51.14;99669.28;106223;1257;60444;-82
2023/11/28 01:46:15;;;;;;;9.00;4.70;;;;;;;4.01;51.50;99665.35;106397;1253;60639;-83
2023/11/28 01:48:43;;;;;;;11.20;5.50;;;;;;;4.07;51.45;99669.67;106409;1252;73850;-82
2023/11/28 01:51:12;;;;;;;7.50;4.50;;;;;;;4.08;51.46;99670.45;106357;1254;67758;-79
2023/11/28 01:53:40;;;;;;;12.20;5.40;;;;;;;3.97;51.56;99674.50;106396;1256;72746;-82
2023/11/28 01:56:08;;;;;;;11.80;5.50;;;;;;;3.75;52.12;99680.16;106250;1259;60537;-83
2023/11/28 01:58:36;;;;;;;9.80;5.00;;;;;;;3.75;52.51;99687.88;106054;1252;60358;-80
2023/11/28 02:01:07;;;;;;;12.00;5.50;;;;;;;3.93;52.16;99684.35;106342;1253;73772;-79
2023/11/28 02:03:35;;;;;;;7.40;4.30;;;;;;;3.93;52.19;99685.98;106239;1259;67172;-83
2023/11/28 02:06:03;;;;;;;9.50;5.00;;;;;;;3.91;52.47;99680.71;106233;1253;71371;-81
2023/11/28 02:08:31;;;;;;;8.90;4.70;;;;;;;3.87;52.87;99680.98;106057;1254;60579;-80
2023/11/28 02:10:59;;;;;;;8.30;4.90;;;;;;;3.82;53.21;99681.80;106485;1254;61839;-83
2023/11/28 02:13:27;;;;;;;9.20;4.80;;;;;;;3.90;53.25;99684.31;106319;1254;73719;-80
2023/11/28 02:15:55;;;;;;;8.50;4.50;;;;;;;4.00;53.28;99685.39;106228;1258;69184;-80
2023/11/28 02:18:24;;;;;;;7.70;4.40;;;;;;;4.08;53.29;99687.92;105950;1254;72712;-80
2023/11/28 02:20:52;;;;;;;9.30;4.90;;;;;;;4.00;53.83;99688.64;106306;1254;60881;-83
2023/11/28 02:23:19;;;;;;;11.60;4.80;;;;;;;4.04;54.12;99688.91;106391;1253;59400;-80
2023/11/28 02:25:48;;;;;;;9.40;4.80;;;;;;;4.20;54.16;99691.92;106306;1254;72642;-83
2023/11/28 02:28:24;;;;;;;9.10;4.50;;;;;;;4.21;54.39;99706.69;106505;1253;67153;-84
2023/11/28 02:30:53;;;;;;;9.40;4.90;;;;;;;4.25;54.51;99707.77;106482;1256;72627;-80
2023/11/28 02:33:22;;;;;;;8.30;4.90;;;;;;;4.27;54.63;99708.38;106261;1254;61222;-80
2023/11/28 02:35:50;;;;;;;7.20;4.20;;;;;;;4.34;54.90;99712.89;106549;1252;60348;-80
2023/11/28 02:38:17;;;;;;;9.50;4.20;;;;;;;4.42;54.43;99709.45;106314;1252;74764;-81
2023/11/28 02:40:45;;;;;;;7.50;4.40;;;;;;;4.43;54.40;99711.89;106372;1254;67133;-83
2023/11/28 02:43:16;;;;;;;7.90;4.40;;;;;;;4.53;54.20;99715.77;106463;1256;72465;-83
2023/11/28 02:45:47;;;;;;;9.60;4.40;;;;;;;4.47;54.05;99724.31;106472;1254;60551;-80
2023/11/28 02:48:15;;;;;;;8.50;4.30;;;;;;;4.55;53.89;99729.89;106072;1252;60592;-80
2023/11/28 02:50:42;;;;;;;9.50;4.20;;;;;;;4.55;53.91;99728.65;106234;1256;73897;-83
2023/11/28 02:53:10;;;;;;;8.40;4.80;;;;;;;4.56;53.53;99728.73;106458;1252;67594;-80
2023/11/28 02:55:38;;;;;;;9.90;4.70;;;;;;;4.51;53.41;99729.87;106435;1256;71618;-80
2023/11/28 02:58:06;;;;;;;8.30;4.40;;;;;;;4.40;53.63;99728.73;106510;1254;60479;-82
2023/11/28 03:00:34;;;;;;;7.70;3.70;;;;;;;4.39;53.62;99734.03;106338;1253;60432;-80
2023/11/28 03:03:02;;;;;;;8.30;4.20;;;;;;;4.27;53.77;99737.16;106429;1256;72653;-79
2023/11/28 03:05:31;;;;;;;8.10;4.20;;;;;;;4.31;53.58;99730.49;106325;1253;68641;-82
2023/11/28 03:07:59;;;;;;;7.10;4.20;;;;;;;4.26;53.45;99726.71;106265;1254;71660;-83
2023/11/28 03:10:27;;;;;;;8.50;4.80;;;;;;;4.28;53.22;99731.48;106221;1256;60543;-79
2023/11/28 03:12:55;;;;;;;9.90;4.00;;;;;;;4.25;53.18;99734.65;106219;1254;60358;-79
2023/11/28 03:15:23;;;;;;;7.40;3.40;;;;;;;4.18;52.82;99735.98;106283;1256;73914;-79
2023/11/28 03:17:51;;;;;;;8.10;4.10;;;;;;;4.05;52.85;99738.98;106331;1254;68394;-79
2023/11/28 03:20:19;;;;;;;7.20;3.80;;;;;;;4.06;52.83;99740.30;106269;1256;72640;-83
2023/11/28 03:22:47;;;;;;;9.80;4.80;;;;;;;4.07;52.66;99740.73;106525;1254;60456;-79
2023/11/28 03:25:14;;;;;;;7.90;4.00;;;;;;;3.97;52.79;99744.73;106490;1253;60348;-79
2023/11/28 03:27:42;;;;;;;8.50;4.00;;;;;;;3.88;52.87;99745.75;106503;1256;73822;-79
2023/11/28 03:30:10;;;;;;;9.30;4.40;;;;;;;3.85;52.84;99745.13;106414;1253;67259;-79
2023/11/28 03:32:38;;;;;;;8.80;4.70;;;;;;;3.92;52.57;99746.35;106352;1254;71420;-83
2023/11/28 03:35:06;;;;;;;7.70;4.30;;;;;;;3.82;52.83;99746.50;106283;1254;60440;-79
2023/11/28 03:37:35;;;;;;;8.00;4.30;;;;;;;3.90;52.80;99753.84;106394;1252;60463;-82
2023/11/28 03:40:03;;;;;;;8.20;4.40;;;;;;;3.93;52.35;99755.34;106433;1254;73882;-82
2023/11/28 03:42:30;;;;;;;8.50;4.20;;;;;;;3.91;52.41;99753.41;106296;1254;67381;-79
2023/11/28 03:44:58;;;;;;;9.00;4.80;;;;;;;3.96;52.18;99751.38;106143;1259;71394;-82
2023/11/28 03:47:26;;;;;;;9.80;4.40;;;;;;;3.99;52.05;99750.42;106325;1253;60376;-82
2023/11/28 03:49:54;;;;;;;10.40;4.60;;;;;;;3.96;52.08;99757.33;106390;1256;60626;-80
2023/11/28 03:52:22;;;;;;;6.90;3.80;;;;;;;3.95;52.17;99760.48;106232;1254;72690;-80
2023/11/28 03:54:49;;;;;;;9.40;4.90;;;;;;;3.87;52.52;99771.05;106213;1258;67100;-83
2023/11/28 03:57:17;;;;;;;9.30;4.30;;;;;;;3.78;52.69;99776.63;106257;1253;72448;-79
2023/11/28 03:59:46;;;;;;;7.90;4.20;;;;;;;3.60;53.07;99784.10;106406;1256;60658;-80
2023/11/28 04:02:14;;;;;;;8.80;4.40;;;;;;;3.69;52.95;99785.63;106301;1254;60313;-82
2023/11/28 04:04:42;;;;;;;8.60;4.70;;;;;;;3.72;52.79;99788.31;106308;1256;73828;-82
2023/11/28 04:07:11;;;;;;;10.40;5.20;;;;;;;3.62;52.74;99792.77;106283;1253;67406;-82
2023/11/28 04:09:41;;;;;;;8.10;4.40;;;;;;;3.67;52.69;99799.98;106326;1254;72681;-81
2023/11/28 04:12:09;;;;;;;10.20;4.80;;;;;;;3.64;52.62;99804.52;106264;1259;60571;-78
2023/11/28 04:14:37;;;;;;;11.00;4.60;;;;;;;3.55;52.85;99806.67;106317;1254;60619;-78
2023/11/28 04:17:05;;;;;;;10.10;4.70;;;;;;;3.46;53.05;99810.21;106338;1253;73871;-79
2023/11/28 04:19:33;;;;;;;13.50;5.20;;;;;;;3.56;52.81;99810.04;106485;1253;68321;-82
2023/11/28 04:22:01;;;;;;;8.70;4.70;;;;;;;3.60;53.07;99811.66;106532;1256;71237;-78
2023/11/28 04:24:30;;;;;;;10.70;4.70;;;;;;;3.72;52.92;99813.27;106309;1253;60431;-79
2023/11/28 04:26:58;;;;;;;9.30;4.40;;;;;;;3.79;52.89;99819.81;106226;1259;60331;-82
2023/11/28 04:29:26;;;;;;;10.60;5.10;;;;;;;3.80;53.19;99820.04;106303;1256;73805;-84
2023/11/28 04:31:53;;;;;;;11.40;4.90;;;;;;;3.89;53.16;99819.36;106237;1254;68881;-79
2023/11/28 04:34:22;;;;;;;7.70;4.60;;;;;;;3.99;53.10;99822.18;106162;1254;71721;-83
2023/11/28 04:36:50;;;;;;;9.60;4.90;;;;;;;3.98;53.24;99821.14;106170;1254;60463;-80
2023/11/28 04:39:18;;;;;;;9.50;4.80;;;;;;;3.91;53.43;99828.73;106233;1254;60571;-82
2023/11/28 04:41:47;;;;;;;8.90;5.00;;;;;;;3.98;53.42;99832.55;106323;1252;73830;-80
2023/11/28 04:44:15;;;;;;;10.30;4.80;;;;;;;3.95;53.43;99834.62;106557;1254;67254;-79
2023/11/28 04:46:43;;;;;;;7.10;4.10;;;;;;;3.98;53.60;99844.11;106272;1254;72968;-82
2023/11/28 04:49:12;;;;;;;6.90;4.00;;;;;;;3.98;53.49;99842.93;106360;1259;61029;-81
2023/11/28 04:51:40;;;;;;;9.70;5.00;;;;;;;3.86;53.97;99845.58;106506;1257;60354;-80
2023/11/28 04:54:08;;;;;;;6.90;3.70;;;;;;;3.94;54.13;99843.31;106402;1253;73874;-78
2023/11/28 04:56:36;;;;;;;8.90;4.40;;;;;;;3.98;53.93;99847.20;106400;1256;67261;-79
2023/11/28 04:59:05;;;;;;;10.30;4.40;;;;;;;4.07;53.66;99845.10;106427;1254;72830;-82
2023/11/28 05:01:33;;;;;;;10.50;4.60;;;;;;;4.16;53.53;99843.59;106303;1254;60411;-82
2023/11/28 05:04:04;;;;;;;10.80;5.00;;;;;;;4.16;53.69;99843.91;106304;1253;60616;-79
2023/11/28 05:06:32;;;;;;;6.50;4.20;;;;;;;4.19;53.64;99842.86;106461;1253;73781;-78
2023/11/28 05:09:00;;;;;;;8.00;4.30;;;;;;;4.22;53.67;99847.02;106302;1253;68421;-83
2023/11/28 05:11:28;;;;;;;10.00;4.50;;;;;;;4.35;53.41;99851.55;106077;1259;73653;-83
2023/11/28 05:13:56;;;;;;;9.50;5.10;;;;;;;4.42;53.02;99859.92;106419;1256;60556;-79
2023/11/28 05:16:25;;;;;;;11.20;4.50;;;;;;;4.40;53.06;99862.42;106205;1254;60027;-78
2023/11/28 05:18:57;;;;;;;8.60;4.20;;;;;;;4.34;53.04;99862.48;106242;1254;73914;-82
2023/11/28 05:21:25;;;;;;;9.20;4.30;;;;;;;4.33;53.07;99871.27;106286;1257;66571;-82
2023/11/28 05:23:54;;;;;;;12.00;5.10;;;;;;;4.27;53.54;99879.15;106416;1256;72628;-82
2023/11/28 05:26:21;;;;;;;11.50;5.10;;;;;;;4.27;53.51;99882.45;106496;1254;61104;-79
2023/11/28 05:28:51;;;;;;;11.80;5.00;;;;;;;4.30;53.57;99883.31;106306;1258;60361;-82
2023/11/28 05:31:19;;;;;;;9.30;4.40;;;;;;;4.29;53.78;99887.52;106359;1254;73027;-79
2023/11/28 05:33:47;;;;;;;10.00;4.50;;;;;;;4.30;54.09;99894.23;106514;1256;68424;-80
2023/11/28 05:36:15;;;;;;;8.30;4.70;;;;;;;4.38;54.07;99892.20;106331;1255;71669;-79
2023/11/28 05:38:43;;;;;;;11.70;5.10;;;;;;;4.37;54.12;99892.91;106301;1255;60427;-83
2023/11/28 05:41:11;;;;;;;8.50;4.40;;;;;;;4.41;53.94;99893.44;106530;1257;60479;-78
2023/11/28 05:43:39;;;;;;;9.90;5.20;;;;;;;4.43;53.76;99900.17;106220;1253;72837;-80
2023/11/28 05:46:07;;;;;;;9.90;4.80;;;;;;;4.51;53.55;99902.43;106303;1254;68260;-84
2023/11/28 05:48:35;;;;;;;11.10;5.10;;;;;;;4.57;53.33;99905.05;106273;1254;72717;-80
2023/11/28 05:51:03;;;;;;;10.70;4.90;;;;;;;4.59;53.41;99904.85;106596;1253;60514;-84
2023/11/28 05:53:32;;;;;;;14.00;5.70;;;;;;;4.57;53.38;99909.00;106329;1253;60572;-80
2023/11/28 05:56:00;;;;;;;10.30;4.40;;;;;;;4.57;53.11;99904.84;106275;1254;73867;-80
2023/11/28 05:58:28;;;;;;;9.70;4.90;;;;;;;4.59;53.05;99907.08;106424;1254;68388;-79
2023/11/28 06:01:01;;;;;;;9.90;4.80;;;;;;;4.68;52.71;99913.78;106285;1257;72759;-79
2023/11/28 06:03:28;;;;;;;;;;;;;;;4.69;52.74;99914.45;106174;1254;60922;-79
2023/11/28 06:05:58;;;;;;;10.90;5.10;;;;;;;4.68;52.88;99920.06;106408;1254;60361;-79
2023/11/28 06:08:27;;;;;;;11.90;5.20;;;;;;;4.64;52.80;99912.88;106210;1258;73880;-83
2023/11/28 06:10:55;;;;;;;12.20;4.80;;;;;;;4.57;53.11;99918.37;106336;1254;67176;-83
2023/11/28 06:13:23;;;;;;;10.20;4.70;;;;;;;4.67;53.21;99918.86;106228;1256;72652;-79
2023/11/28 06:15:51;;;;;;;11.30;4.90;;;;;;;4.86;52.92;99921.19;106392;1254;60397;-80
2023/11/28 06:18:19;;;;;;;11.70;5.00;;;;;;;4.91;52.86;99924.48;106286;1259;60080;-80
2023/11/28 06:20:47;;;;;;;9.60;5.10;;;;;;;4.91;52.72;99924.92;106060;1253;175083;-84
2023/11/28 06:23:15;;;;;;;9.50;4.90;;;;;;;4.96;52.81;99920.80;106380;1254;67163;-84
2023/11/28 06:25:46;;;;;;;9.80;4.50;;;;;;;5.04;52.43;99926.34;106268;1257;71395;-84
2023/11/28 06:28:15;;;;;;;10.50;4.90;;;;;;;5.12;52.41;99922.41;106239;1254;60459;-80
2023/11/28 06:30:43;;;;;;;10.00;4.60;;;;;;;5.22;52.10;99919.91;106359;1252;60428;-79
2023/11/28 06:33:11;;;;;;;9.40;4.80;;;;;;;5.23;52.10;99919.97;106484;1252;72745;-83
2023/11/28 06:35:38;;;;;;;12.30;5.40;;;;;;;5.31;51.43;99920.86;106402;1257;67578;-78
2023/11/28 06:38:06;;;;;;;11.10;5.40;;;;;;;5.37;51.03;99921.40;106402;1253;71412;-83
2023/11/28 06:40:35;;;;;;;9.50;5.00;;;;;;;5.38;50.72;99917.23;106361;1256;60546;-83
2023/11/28 06:43:04;;;;;;;9.20;5.30;;;;;;;5.28;50.83;99922.45;106452;1259;61206;-79
2023/11/28 06:45:33;;;;;;;10.30;5.00;;;;;;;5.30;51.13;99919.11;106424;1254;72616;-83
2023/11/28 06:48:01;;;;;;;10.60;4.80;;;;;;;5.37;50.84;99910.98;106442;1256;68360;-83
2023/11/28 06:50:29;;;;;;;11.90;5.40;;;;;;;5.51;50.49;99909.48;106334;1254;72754;-84
2023/11/28 06:52:56;;;;;;;9.20;4.30;;;;;;;5.56;50.20;99907.84;106485;1254;60361;-83
2023/11/28 06:55:24;;;;;;;11.40;4.50;;;;;;;5.57;50.12;99910.99;106369;1254;60363;-78
2023/11/28 06:57:52;;;;;;;9.00;4.60;;;;;;;5.43;50.27;99912.23;106347;1259;72403;-78
2023/11/28 07:00:20;;;;;;;11.50;5.40;;;;;;;5.55;50.28;99915.80;106322;1254;67208;-84
2023/11/28 07:02:48;;;;;;;9.10;4.60;;;;;;;5.64;49.90;99922.70;106386;1256;72660;-79
2023/11/28 07:05:29;;;;;;;12.50;5.80;;;;;;;5.61;49.99;99923.11;106457;1258;60569;-79
2023/11/28 07:08:09;;;;;;;13.10;5.20;;;;;;;5.71;49.62;99926.94;106196;1257;60508;-79
2023/11/28 07:10:43;;;;;;;11.30;5.60;;;;;;;5.74;49.99;99932.64;106417;1254;73894;-83
2023/11/28 07:13:10;;;;;;;12.30;5.10;;;;;;;5.75;49.74;99938.17;106446;1254;68910;-78
2023/11/28 07:15:44;;;;;;;11.10;5.10;;;;;;;5.67;50.14;99942.13;106511;1254;71417;-83
2023/11/28 07:18:20;;;;;;;9.40;4.60;;;;;;;5.62;50.48;99939.65;106310;1256;60556;-83
2023/11/28 07:20:48;;;;;;;12.60;4.90;;;;;;;5.69;50.03;99941.13;106443;1253;60545;-78
2023/11/28 07:23:23;;;;;;;8.80;4.90;;;;;;;5.75;49.83;99944.58;106252;1254;72556;-79
2023/11/28 07:25:56;;;;;;;9.90;4.80;;;;;;;5.85;49.77;99949.42;106474;1256;67187;-79
2023/11/28 07:28:30;;;;;;;10.50;5.00;;;;;;;5.93;49.24;99949.83;106674;1254;72729;-78
2023/11/28 07:31:04;;;;;;;9.80;4.70;;;;;;;5.96;49.32;99954.67;106277;1253;60444;-78
2023/11/28 07:33:44;;;;;;;9.80;5.70;;;;;;;5.92;49.14;99960.27;106358;1256;60437;-79
2023/11/28 07:36:24;;;;;;;10.40;4.80;;;;;;;6.02;49.23;99962.04;106640;1254;73818;-78
2023/11/28 07:39:03;;;;;;;9.30;4.60;;;;;;;6.06;48.87;99958.89;106151;1261;70730;-79
2023/11/28 07:41:44;;;;;;;10.80;4.90;;;;;;;6.04;49.11;99963.31;106218;1254;72687;-78
2023/11/28 07:44:24;;;;;;;9.40;4.60;;;;;;;6.19;48.97;99955.38;106319;1258;60444;-78
2023/11/28 07:47:05;;;;;;;8.60;4.90;;;;;;;6.51;48.55;99948.92;106385;1254;60578;-83
2023/11/28 07:49:38;;;;;;;8.40;4.50;;;;;;;6.50;48.23;99952.45;106213;1254;73781;-82
2023/11/28 07:52:12;;;;;;;9.60;4.80;;;;;;;6.41;48.53;99952.02;105873;1254;68668;-78
2023/11/28 07:54:53;;;;;;;11.20;4.90;;;;;;;6.44;48.25;99952.31;105854;1254;72656;-83
2023/11/28 07:57:27;;;;;;;7.10;4.80;;;;;;;6.33;48.49;99957.84;105902;1254;60582;-83
2023/11/28 08:00:02;;;;;;;9.60;4.90;;;;;;;6.39;48.59;99961.89;106010;1254;60604;-77
2023/11/28 08:02:45;;;;;;;11.40;5.10;;;;;;;6.54;48.33;99959.25;106224;1254;73862;-78
2023/11/28 08:05:25;;;;;;;9.60;4.70;;;;;;;6.61;48.12;99958.69;105985;1254;67679;-85
2023/11/28 08:08:05;;;;;;;11.30;5.20;;;;;;;6.64;47.89;99958.04;106451;1259;72429;-84
2023/11/28 08:10:40;;;;;;;11.90;5.00;;;;;;;6.73;47.78;99955.42;106604;1254;60509;-78
2023/11/28 08:13:15;;;;;;;13.00;5.50;;;;;;;6.68;47.86;99954.36;106218;1257;60530;-86
2023/11/28 08:15:57;;;;;;;8.20;4.80;;;;;;;6.71;47.93;99951.34;106344;1254;72648;-79
2023/11/28 08:18:37;;;;;;;;;;;;;;;6.50;48.45;99949.99;106480;1256;67115;-84
2023/11/28 08:21:22;;;;;;;8.40;4.30;;;;;;;6.56;48.54;99946.02;106308;1259;72715;-84
2023/11/28 08:24:04;;;;;;;9.40;4.50;;;;;;;6.67;48.38;99946.98;106354;1254;61007;-85
2023/11/28 08:26:43;;;;;;;10.20;4.70;;;;;;;6.71;48.94;99944.92;106364;1254;60469;-85
2023/11/28 08:29:23;;;;;;;9.60;5.10;;;;;;;6.85;48.74;99947.31;106327;1254;73840;-85
2023/11/28 08:32:03;;;;;;;11.10;5.70;;;;;;;6.98;48.48;99941.70;106344;1253;68680;-79
2023/11/28 08:34:43;;;;;;;7.60;4.80;;;;;;;7.14;48.22;99942.02;106574;1253;70540;-79
2023/11/28 08:37:23;;;;;;;10.70;5.10;;;;;;;7.10;48.08;99942.43;106610;1256;62591;-86
2023/11/28 08:40:05;;;;;;;9.00;4.90;;;;;;;6.96;48.11;99942.83;106361;1254;60539;-80
2023/11/28 08:42:45;;;;;;;7.00;3.60;;;;;;;6.89;48.39;99946.78;106676;1256;72849;-78
2023/11/28 08:45:32;;;;;;;8.70;4.70;;;;;;;6.82;48.12;99947.20;106424;1254;67212;-79
2023/11/28 08:48:12;;;;;;;9.40;5.10;;;;;;;6.88;48.50;99937.48;106337;1253;71445;-78
2023/11/28 08:50:52;;;;;;;9.10;4.90;;;;;;;7.02;48.19;99938.24;106280;1254;60832;-79
2023/11/28 08:53:32;;;;;;;10.00;4.20;;;;;;;7.11;47.97;99942.82;106250;1256;60374;-78
2023/11/28 08:56:17;;;;;;;11.40;5.60;;;;;;;7.19;47.71;99941.64;106448;1254;72639;-78
2023/11/28 08:58:59;;;;;;;9.90;5.10;;;;;;;7.26;47.14;99947.14;106247;1257;70448;-86
2023/11/28 09:01:39;;;;;;;8.30;5.00;;;;;;;7.20;47.75;99947.34;106418;1256;72579;-80
2023/11/28 09:04:19;;;;;;;9.10;5.00;;;;;;;7.18;48.01;99953.38;106243;1254;60450;-81
2023/11/28 09:06:59;;;;;;;13.60;6.30;;;;;;;7.17;47.80;99956.91;106373;1256;60364;-80
2023/11/28 09:09:40;;;;;;;17.10;8.30;;;;;;;7.22;47.72;99957.52;106456;1256;71606;-80
2023/11/28 09:12:22;;;;;;;16.50;8.70;;;;;;;7.30;47.58;99954.86;106601;1257;67547;-85
2023/11/28 09:15:02;;;;;;;17.80;8.40;;;;;;;7.39;47.30;99958.78;106304;1254;71808;-80
2023/11/28 09:17:42;;;;;;;22.00;8.80;;;;;;;7.35;47.75;99955.80;106414;1253;61609;-80
2023/11/28 09:20:22;;;;;;;17.70;7.90;;;;;;;7.38;47.26;99963.46;106189;1254;60416;-81
2023/11/28 09:23:02;;;;;;;17.60;8.30;;;;;;;7.34;47.25;99966.83;106552;1254;73827;-80
2023/11/28 09:25:42;;;;;;;13.90;7.20;;;;;;;7.26;47.28;99962.20;106518;1260;67256;-86
2023/11/28 09:28:37;;;;;;;13.20;7.40;;;;;;;7.06;46.87;99952.86;106258;1254;72092;-85
2023/11/28 09:31:24;;;;;;;15.20;7.60;;;;;;;6.95;46.44;99954.73;106449;1254;60556;-79
2023/11/28 09:34:05;;;;;;;17.00;7.80;;;;;;;6.89;46.54;99943.04;106266;1254;60531;-85
2023/11/28 09:36:45;;;;;;;17.50;8.00;;;;;;;6.87;46.64;99946.83;106394;1256;76439;-86
2023/11/28 09:39:26;;;;;;;19.00;9.10;;;;;;;6.93;46.72;99955.33;106285;1258;68365;-80
2023/11/28 09:42:06;;;;;;;17.90;8.60;;;;;;;6.95;46.22;99960.92;106521;1254;71173;-80
2023/11/28 09:50:12;;;;;;;21.40;9.00;;;;;;;6.83;46.50;99957.30;106430;1256;60335;-85
2023/11/28 09:52:44;;;;;;;19.80;10.20;;;;;;;6.90;47.05;99956.23;106389;1254;73861;-79
2023/11/28 09:55:14;;;;;;;17.90;10.20;;;;;;;6.96;47.23;99960.55;106547;1256;68394;-79
2023/11/28 09:57:45;;;;;;;18.20;10.00;;;;;;;6.93;47.67;99962.39;106288;1254;71378;-79
2023/11/28 10:00:19;;;;;;;19.40;10.50;;;;;;;6.94;47.56;99961.68;106350;1256;60447;-79
2023/11/28 10:02:52;;;;;;;20.90;9.80;;;;;;;7.02;47.41;99958.50;106383;1256;60380;-78
2023/11/28 10:05:20;;;;;;;;;;;;;;;7.06;47.42;99954.33;106430;1254;72552;-79
2023/11/28 10:07:52;;;;;;;19.90;10.20;;;;;;;7.20;47.37;99950.83;106532;1254;70976;-79
2023/11/28 10:10:24;;;;;;;22.40;10.20;;;;;;;7.27;47.61;99945.23;106329;1257;72681;-79
2023/11/28 10:12:52;;;;;;;18.80;9.40;;;;;;;7.34;47.37;99950.52;106067;1261;61457;-83
2023/11/28 10:15:25;;;;;;;17.90;8.90;;;;;;;7.46;47.27;99951.23;106342;1254;61989;-85
2023/11/28 10:17:54;;;;;;;22.30;9.90;;;;;;;7.44;47.29;99946.13;106455;1254;74157;-79
2023/11/28 10:20:27;;;;;;;18.70;9.40;;;;;;;7.34;47.11;99939.37;106247;1260;69014;-85
2023/11/28 10:22:55;;;;;;;19.00;10.00;;;;;;;7.14;47.03;99935.93;106456;1254;72356;-79
2023/11/28 10:25:24;;;;;;;24.20;12.60;;;;;;;6.93;47.44;99937.94;106479;1256;60494;-79
2023/11/28 10:27:59;;;;;;;20.20;10.80;;;;;;;6.87;46.94;99944.88;106470;1257;61423;-84
2023/11/28 10:30:29;;;;;;;21.90;10.50;;;;;;;6.67;47.08;99946.16;106202;1259;73815;-85
2023/11/28 10:32:58;;;;;;;20.80;9.80;;;;;;;6.45;47.59;99951.71;106305;1257;68362;-85
2023/11/28 10:35:54;;;;;;;23.60;13.30;;;;;;;6.33;48.00;99947.91;106279;1259;74723;-83
2023/11/28 10:38:22;;;;;;;17.80;9.60;;;;;;;6.31;48.08;99942.91;106567;1255;60615;-84
2023/11/28 10:40:50;;;;;;;19.70;9.90;;;;;;;6.24;48.30;99940.81;106592;1253;60321;-84
2023/11/28 10:43:18;;;;;;;16.80;8.40;;;;;;;6.22;48.47;99934.94;106361;1255;73871;-79
2023/11/28 10:45:46;;;;;;;18.30;9.60;;;;;;;6.23;48.30;99923.88;106416;1256;68353;-84
2023/11/28 10:48:14;;;;;;;16.40;9.20;;;;;;;6.34;47.78;99912.36;106398;1254;72404;-79
2023/11/28 10:50:42;;;;;;;15.70;8.40;;;;;;;6.40;47.81;99906.15;106512;1260;60504;-84
2023/11/28 10:53:11;;;;;;;16.10;7.60;;;;;;;6.45;47.31;99904.60;106438;1256;60562;-84
2023/11/28 10:55:42;;;;;;;16.10;7.70;;;;;;;6.53;46.87;99903.65;106615;1256;73501;-83
2023/11/28 10:58:14;;;;;;;14.20;7.70;;;;;;;6.47;47.04;99898.69;106710;1256;68593;-83
2023/11/28 11:00:46;;;;;;;13.00;7.40;;;;;;;6.48;47.00;99900.00;106652;1257;73655;-84
2023/11/28 11:03:14;;;;;;;14.50;7.50;;;;;;;6.49;46.88;99901.63;106554;1257;60345;-84
2023/11/28 11:05:42;;;;;;;17.10;7.50;;;;;;;6.41;46.42;99908.33;106429;1254;60408;-83
2023/11/28 11:08:10;;;;;;;16.70;7.40;;;;;;;6.25;46.62;99908.48;106486;1256;73946;-78
2023/11/28 11:10:41;;;;;;;14.30;7.40;;;;;;;6.29;46.75;99907.67;106398;1254;68515;-79
2023/11/28 11:13:35;;;;;;;16.80;7.50;;;;;;;6.23;46.47;99910.73;106452;1258;74427;-78
2023/11/28 11:16:18;;;;;;;15.70;7.70;;;;;;;6.23;46.18;99905.86;106457;1260;60549;-79
2023/11/28 11:18:48;;;;;;;13.90;7.10;;;;;;;6.38;46.27;99901.04;106442;1257;62379;-79
2023/11/28 11:21:37;;;;;;;12.30;6.10;;;;;;;6.42;46.30;99899.11;106530;1256;76056;-84
2023/11/28 11:24:05;;;;;;;10.20;5.80;;;;;;;6.59;46.30;99900.46;106365;1257;68653;-82
2023/11/28 11:26:37;;;;;;;7.60;4.80;;;;;;;6.77;46.09;99898.52;106413;1257;71675;-83
2023/11/28 11:29:26;;;;;;;11.20;5.30;;;;;;;6.98;45.57;99896.23;106440;1253;61452;-78
2023/11/28 11:31:57;;;;;;;11.40;5.30;;;;;;;7.26;44.88;99895.18;106385;1257;60341;-77
2023/11/28 11:34:33;;;;;;;10.40;5.30;;;;;;;7.34;44.81;99889.15;106425;1254;75840;-78
2023/11/28 11:37:06;;;;;;;11.30;5.30;;;;;;;7.43;44.71;99879.69;106499;1259;67452;-78
2023/11/28 11:39:37;;;;;;;12.50;5.40;;;;;;;7.51;44.80;99881.04;106286;1257;72739;-77
2023/11/28 11:42:11;;;;;;;10.60;4.80;;;;;;;7.45;45.09;99885.67;106368;1256;62899;-82
2023/11/28 11:44:43;;;;;;;11.10;5.20;;;;;;;7.39;45.24;99881.58;106305;1259;62349;-78
2023/11/28 11:47:16;;;;;;;11.90;5.60;;;;;;;7.12;45.61;99882.73;106363;1254;76310;-78
2023/11/28 11:49:45;;;;;;;19.10;9.10;;;;;;;7.01;45.80;99873.90;106546;1255;71178;-81
2023/11/28 11:52:13;;;;;;;19.60;9.10;;;;;;;6.92;46.32;99874.16;106458;1259;74907;-78